createdAt,value
2018-01-24T15:27:24.385Z,13.87
2018-01-24T15:29:53.499Z,13.92
2018-01-24T15:32:22.608Z,13.88
2018-01-24T15:34:52.501Z,13.83
2018-01-24T15:37:21.597Z,13.78
2018-01-24T15:39:50.735Z,13.79
2018-01-24T15:42:19.841Z,13.74
2018-01-24T15:44:48.962Z,13.69
2018-01-24T15:47:18.051Z,13.64
2018-01-24T15:49:47.154Z,13.63
2018-01-24T15:52:16.258Z,13.49
2018-01-24T15:54:45.380Z,13.27
2018-01-24T15:57:15.249Z,13.11
2018-01-24T15:59:44.388Z,13.05
2018-01-24T16:02:14.265Z,12.90
2018-01-24T16:04:43.376Z,12.77
2018-01-24T16:07:12.548Z,12.67
2018-01-24T16:09:41.697Z,12.57
2018-01-24T16:12:10.934Z,12.48
2018-01-24T16:14:40.033Z,12.42
2018-01-24T16:17:09.183Z,12.35
2018-01-24T16:19:38.331Z,12.31
2018-01-24T16:22:07.437Z,12.26
2018-01-24T16:24:36.579Z,12.22
2018-01-24T16:27:06.519Z,12.19
2018-01-24T16:29:36.398Z,12.13
2018-01-24T16:32:06.290Z,12.09
2018-01-24T16:34:35.479Z,12.08
2018-01-24T16:37:04.610Z,12.16
2018-01-24T16:39:33.724Z,12.13
2018-01-24T16:42:02.826Z,12.12
2018-01-24T16:44:31.949Z,12.05
2018-01-24T16:47:01.806Z,12.08
2018-01-24T16:49:30.910Z,12.13
2018-01-24T16:52:00.809Z,12.08
2018-01-24T16:54:29.902Z,12.12
2018-01-24T16:56:59.052Z,12.11
2018-01-24T16:59:28.151Z,12.02
2018-01-24T17:01:57.285Z,11.92
2018-01-24T17:04:27.169Z,11.88
2018-01-24T17:06:56.300Z,11.82
2018-01-24T17:09:26.181Z,11.73
2018-01-24T17:11:56.098Z,11.56
2018-01-24T17:14:26.708Z,11.41
2018-01-24T17:16:55.836Z,11.26
2018-01-24T17:19:24.969Z,11.08
2018-01-24T17:21:54.904Z,10.99
2018-01-24T17:24:24.012Z,10.98
2018-01-24T17:26:53.888Z,10.99
2018-01-24T17:29:23.009Z,11.02
2018-01-24T17:31:52.118Z,11.05
2018-01-24T17:34:21.247Z,11.08
2018-01-24T17:36:51.147Z,11.12
2018-01-24T17:39:21.054Z,11.16
2018-01-24T17:41:50.166Z,11.19
2018-01-24T17:44:19.279Z,11.20
2018-01-24T17:46:48.410Z,11.20
2018-01-24T17:49:17.552Z,11.18
2018-01-24T17:51:46.695Z,11.16
2018-01-24T17:54:15.840Z,11.15
2018-01-24T17:56:44.982Z,11.17
2018-01-24T17:59:14.881Z,11.11
2018-01-24T18:01:43.977Z,10.96
2018-01-24T18:04:13.071Z,10.76
2018-01-24T18:06:42.208Z,10.65
2018-01-24T18:09:11.299Z,10.59
2018-01-24T18:11:40.451Z,10.75
2018-01-24T18:14:10.322Z,10.67
2018-01-24T18:16:39.553Z,10.56
2018-01-24T18:19:08.653Z,10.61
2018-01-24T18:21:38.567Z,10.58
2018-01-24T18:24:07.672Z,10.57
2018-01-24T18:26:36.793Z,10.49
2018-01-24T18:29:05.887Z,10.38
2018-01-24T18:31:35.025Z,10.44
2018-01-24T18:34:04.141Z,10.49
2018-01-24T18:36:33.274Z,10.60
2018-01-24T18:39:03.175Z,10.55
2018-01-24T18:41:32.433Z,10.44
2018-01-24T18:44:01.557Z,10.55
2018-01-24T18:46:30.678Z,10.56
2018-01-24T18:48:59.792Z,10.57
2018-01-24T18:51:28.916Z,10.58
2018-01-24T18:53:58.027Z,10.71
2018-01-24T18:56:27.156Z,10.68
2018-01-24T18:58:56.241Z,10.63
2018-01-24T19:01:25.367Z,10.61
2018-01-24T19:03:54.515Z,10.54
2018-01-24T19:06:23.654Z,10.50
2018-01-24T19:08:52.786Z,10.49
2018-01-24T19:11:21.902Z,10.49
2018-01-24T19:13:51.044Z,10.53
2018-01-24T19:16:20.169Z,10.57
2018-01-24T19:18:49.303Z,10.50
2018-01-24T19:21:18.424Z,10.29
2018-01-24T19:23:47.590Z,10.29
2018-01-24T19:26:16.712Z,10.21
2018-01-24T19:28:45.858Z,10.17
2018-01-24T19:31:14.979Z,10.01
2018-01-24T19:33:44.874Z,9.99
2018-01-24T19:36:14.790Z,9.88
2018-01-24T19:39:06.586Z,9.81
2018-01-24T19:41:35.705Z,9.81
2018-01-24T19:44:05.595Z,9.77
2018-01-24T19:46:34.735Z,9.68
2018-01-24T19:49:04.647Z,9.78
2018-01-24T19:51:33.792Z,9.81
2018-01-24T19:54:02.912Z,9.78
2018-01-24T19:56:32.166Z,9.85
2018-01-24T19:59:01.319Z,9.85
2018-01-24T20:01:31.234Z,9.79
2018-01-24T20:04:01.120Z,9.79
2018-01-24T20:06:30.228Z,9.83
2018-01-24T20:08:59.369Z,9.93
2018-01-24T20:11:28.500Z,9.96
2018-01-24T20:13:57.637Z,9.99
2018-01-24T20:16:26.770Z,10.00
2018-01-24T20:18:55.956Z,10.00
2018-01-24T20:21:25.052Z,10.00
2018-01-24T20:23:54.156Z,10.04
2018-01-24T20:26:23.315Z,10.21
2018-01-24T20:28:52.438Z,10.19
2018-01-24T20:31:22.336Z,9.99
2018-01-24T20:33:52.263Z,9.98
2018-01-24T20:36:21.368Z,9.73
2018-01-24T20:38:50.482Z,9.64
2018-01-24T20:41:19.613Z,9.62
2018-01-24T20:43:48.732Z,9.60
2018-01-24T20:46:17.841Z,9.66
2018-01-24T20:48:47.019Z,9.79
2018-01-24T20:51:16.128Z,9.73
2018-01-24T20:53:45.255Z,9.66
2018-01-24T20:56:14.380Z,9.59
2018-01-24T20:58:44.252Z,9.56
2018-01-24T21:01:13.353Z,9.54
2018-01-24T21:03:42.515Z,9.45
2018-01-24T21:06:13.162Z,9.60
2018-01-24T21:08:42.312Z,9.65
2018-01-24T21:11:11.407Z,9.77
2018-01-24T21:13:40.553Z,9.77
2018-01-24T21:16:09.645Z,9.81
2018-01-24T21:18:38.759Z,9.83
2018-01-24T21:21:07.909Z,9.79
2018-01-24T21:23:37.013Z,9.74
2018-01-24T21:26:06.143Z,9.70
2018-01-24T21:28:53.532Z,9.60
2018-01-24T21:31:40.415Z,9.59
2018-01-24T21:34:27.223Z,9.44
2018-01-24T21:36:59.244Z,9.16
2018-01-24T21:39:28.353Z,8.98
2018-01-24T21:41:57.471Z,8.92
2018-01-24T21:44:26.610Z,8.82
2018-01-24T21:46:55.710Z,8.79
2018-01-24T21:49:24.836Z,8.75
2018-01-24T21:51:53.958Z,8.80
2018-01-24T21:54:23.055Z,9.13
2018-01-24T21:56:52.167Z,8.95
2018-01-24T21:59:21.291Z,8.77
2018-01-24T22:01:50.400Z,8.76
2018-01-24T22:04:20.284Z,8.72
2018-01-24T22:06:49.411Z,8.67
2018-01-24T22:09:18.524Z,8.70
2018-01-24T22:11:47.639Z,8.76
2018-01-24T22:14:17.534Z,8.88
2018-01-24T22:16:46.625Z,8.95
2018-01-24T22:19:15.754Z,8.99
2018-01-24T22:21:44.857Z,9.04
2018-01-24T22:24:14.023Z,9.08
2018-01-24T22:26:43.143Z,9.17
2018-01-24T22:29:12.270Z,9.20
2018-01-24T22:31:41.364Z,9.16
2018-01-24T22:36:26.583Z,9.25
2018-01-24T22:38:55.706Z,9.20
2018-01-24T22:41:24.797Z,9.25
2018-01-24T22:43:53.929Z,9.24
2018-01-24T22:46:23.046Z,9.22
2018-01-24T22:48:52.143Z,9.27
2018-01-24T22:51:25.249Z,9.29
2018-01-24T22:53:54.359Z,9.31
2018-01-24T22:56:23.467Z,9.54
2018-01-24T22:58:52.557Z,9.86
2018-01-24T23:01:22.439Z,9.93
2018-01-24T23:03:51.543Z,10.03
2018-01-24T23:06:20.662Z,10.02
2018-01-24T23:08:49.745Z,9.87
2018-01-24T23:11:18.865Z,9.76
2018-01-24T23:13:47.994Z,9.59
2018-01-24T23:16:17.872Z,9.62
2018-01-24T23:18:47.034Z,9.57
2018-01-24T23:21:16.106Z,9.45
2018-01-24T23:23:45.243Z,9.31
2018-01-24T23:26:15.093Z,9.26
2018-01-24T23:28:44.207Z,9.20
2018-01-24T23:31:13.319Z,9.20
2018-01-24T23:33:42.398Z,9.16
2018-01-24T23:36:12.286Z,9.15
2018-01-24T23:38:42.157Z,9.16
2018-01-24T23:41:12.008Z,9.15
2018-01-24T23:43:41.118Z,9.22
2018-01-24T23:46:10.198Z,9.21
2018-01-24T23:48:40.066Z,9.21
2018-01-24T23:51:09.177Z,9.26
2018-01-24T23:53:39.061Z,9.27
2018-01-24T23:56:08.906Z,9.42
2018-01-24T23:58:38.053Z,9.38
